ENALENTC

Guest
Details From ENAL - Alesund lufthavn - Vigra
To ENTC - Tromso Langnes
Flight Number -
Tags decoded
Created
Modified
Stats Distance 527 nm / 976 km
Max Altitude 0 ft / 0 m
Waypoints 2
Social Downloads 7
Likes 0
Share

Download

Looking for another format? Having issues loading an existing format? Contact us
Advertisement - Login to hide

Notes

Requested: ENAL NELSU Z108 NONVU Z261 AMIMO ENTC Unmatched points: NELSU Z108 NONVU Z261 AMIMO

Route

ENAL ENTC

ID Type Via Altitude (ft/m) Position (lat/lon) Dist (leg/tot) Name
O ENAL APT - 0 / 0 62.56037 / 6.11016 - / 0 nm Alesund lufthavn - Vigra
O ENTC APT - 0 / 0 69.68287 / 18.91936 526 / 526 nm Tromso Langnes

Altitude Profile

Advertisement - Login to hide

Weather


0- 5 10 15 20 25 30 35+ Temperature / °C

Clouds and Precipitation
Forecast for 2021-03-22 12:00 UTC. Updated 2 months ago

Ground ~20,000 ft ~40,000 ft Winds

ENAL

Details ICAO ENAL (AES)
Name Alesund
Region Norway
Timezone Europe/Oslo (UTC+2.0)
Stats Elevation 67 ft / 20 m (AMSL)
Location 62.560400° 6.109990°
Runways 1
Magnetic Variation 1.819° E

METAR

ENAL 160320Z AUTO 20006KT 9999 -RA FEW008/// SCT026/// BKN055/// 10/10 Q0997

Decode

TAF

Not found

Departure Runways

ID Width Length Bearing (true/mag) Surface Threshold Overrun Markings Lighting
06 142 ft / 43 m 7,604 ft / 2,318 m 64.82° / 63.00° ASPHALT 492 ft / 150 m 0 ft / 0 m PREC-APP EDGE THRESHOLD MALSF
24 142 ft / 43 m 7,604 ft / 2,318 m 244.86° / 243.04° ASPHALT 751 ft / 229 m 0 ft / 0 m PREC-APP EDGE THRESHOLD MALSF

ENTC

Details ICAO ENTC (TOS)
Name Tromso Langnes
Region Norway
Timezone Europe/Oslo (UTC+2.0)
Stats Elevation 28 ft / 9 m (AMSL)
Location 69.682900° 18.918600°
Runways 1
Magnetic Variation 9.581° E

METAR

ENTC 160250Z 03008KT 9999 SCT084 BKN130 04/01 Q1008 RMK WIND 2600FT 10007KT

Decode

TAF

TAF ENTC 152300Z 1600/1624 04009KT 9999 BKN035 PROB30 TEMPO 1609/1612 RA

Decode

Destination Runways

ID Width Length Bearing (true/mag) Surface Threshold Overrun Markings Lighting
18 148 ft / 45 m 7,520 ft / 2,292 m 193.07° / 183.49° ASPHALT 971 ft / 296 m 0 ft / 0 m PREC-APP CENTERLINE EDGE THRESHOLD MALSF
36 148 ft / 45 m 7,520 ft / 2,292 m 13.05° / 3.47° ASPHALT 0 ft / 0 m 0 ft / 0 m PREC-APP CENTERLINE EDGE THRESHOLD MALSF

Approach Navaids

Runway Type Ident Frequency Range Bearing (true/mag) Slope Elevation
18 LOC-ILS TR 109.90 MHz 18 nm / 33 km 193.07° / 183.49 ° - 28 ft / 9 m (AMSL)
18 GS TR 109.90 MHz 10 nm / 19 km 193.07° / 183.49 ° 4.00° 28 ft / 9 m (AMSL)
36 LOC-ILS TC 110.90 MHz 18 nm / 33 km 13.07° / 3.49 ° - 28 ft / 9 m (AMSL)
36 GS TC 110.90 MHz 10 nm / 19 km 13.07° / 3.49 ° 4.00° 28 ft / 9 m (AMSL)

Popular Alternatives